sensor_id;sensor_type;location;lat;lon;timestamp;pressure;altitude;pressure_sealevel;temperature;humidity
55217;BME280;41086;46.736;15.666;2023-01-27T00:00:37;98411.94;;;-0.45;100.00
55217;BME280;41086;46.736;15.666;2023-01-27T00:03:05;98413.69;;;-0.46;100.00
55217;BME280;41086;46.736;15.666;2023-01-27T00:05:31;98412.03;;;-0.48;100.00
55217;BME280;41086;46.736;15.666;2023-01-27T00:07:58;98364.13;;;-0.77;100.00
55217;BME280;41086;46.736;15.666;2023-01-27T00:10:26;98415.47;;;-0.48;100.00
55217;BME280;41086;46.736;15.666;2023-01-27T00:12:53;98422.44;;;-0.48;100.00
55217;BME280;41086;46.736;15.666;2023-01-27T00:15:38;98406.97;;;-0.54;100.00
55217;BME280;41086;46.736;15.666;2023-01-27T00:18:05;98409.50;;;-0.51;100.00
55217;BME280;41086;46.736;15.666;2023-01-27T00:20:32;98418.72;;;-0.38;100.00
55217;BME280;41086;46.736;15.666;2023-01-27T00:23:20;98414.38;;;-0.39;100.00
55217;BME280;41086;46.736;15.666;2023-01-27T00:26:08;98421.41;;;-0.42;100.00
55217;BME280;41086;46.736;15.666;2023-01-27T00:28:37;98417.88;;;-0.40;100.00
55217;BME280;41086;46.736;15.666;2023-01-27T00:31:06;98422.34;;;-0.45;100.00
55217;BME280;41086;46.736;15.666;2023-01-27T00:33:35;98396.63;;;-0.57;100.00
55217;BME280;41086;46.736;15.666;2023-01-27T00:36:04;98424.91;;;-0.43;100.00
55217;BME280;41086;46.736;15.666;2023-01-27T00:38:34;98410.25;;;-0.46;100.00
55217;BME280;41086;46.736;15.666;2023-01-27T00:41:07;98423.97;;;-0.41;100.00
55217;BME280;41086;46.736;15.666;2023-01-27T00:43:47;98426.63;;;-0.42;100.00
55217;BME280;41086;46.736;15.666;2023-01-27T00:46:15;98412.97;;;-0.52;100.00
55217;BME280;41086;46.736;15.666;2023-01-27T00:48:42;98434.38;;;-0.41;100.00
55217;BME280;41086;46.736;15.666;2023-01-27T00:51:10;98444.78;;;-0.39;100.00
55217;BME280;41086;46.736;15.666;2023-01-27T00:53:37;98440.41;;;-0.39;100.00
55217;BME280;41086;46.736;15.666;2023-01-27T00:56:04;98450.88;;;-0.40;100.00
55217;BME280;41086;46.736;15.666;2023-01-27T00:58:31;98430.41;;;-0.54;100.00
55217;BME280;41086;46.736;15.666;2023-01-27T01:01:00;98444.03;;;-0.45;100.00
55217;BME280;41086;46.736;15.666;2023-01-27T01:03:27;98444.81;;;-0.41;100.00
55217;BME280;41086;46.736;15.666;2023-01-27T01:05:59;98454.50;;;-0.46;100.00
55217;BME280;41086;46.736;15.666;2023-01-27T01:08:27;98426.06;;;-0.55;100.00
55217;BME280;41086;46.736;15.666;2023-01-27T01:10:56;98446.53;;;-0.40;100.00
55217;BME280;41086;46.736;15.666;2023-01-27T01:13:24;98437.22;;;-0.49;100.00
55217;BME280;41086;46.736;15.666;2023-01-27T01:15:53;98434.47;;;-0.44;100.00
55217;BME280;41086;46.736;15.666;2023-01-27T01:18:20;98439.00;;;-0.51;100.00
55217;BME280;41086;46.736;15.666;2023-01-27T01:20:47;98446.63;;;-0.45;100.00
55217;BME280;41086;46.736;15.666;2023-01-27T01:23:14;98441.66;;;-0.54;100.00
55217;BME280;41086;46.736;15.666;2023-01-27T01:25:41;98376.75;;;-0.96;100.00
55217;BME280;41086;46.736;15.666;2023-01-27T01:28:08;98437.41;;;-0.58;100.00
55217;BME280;41086;46.736;15.666;2023-01-27T01:30:36;98433.19;;;-0.62;100.00
55217;BME280;41086;46.736;15.666;2023-01-27T01:33:04;98425.31;;;-0.59;100.00
55217;BME280;41086;46.736;15.666;2023-01-27T01:35:36;98425.31;;;-0.60;100.00
55217;BME280;41086;46.736;15.666;2023-01-27T01:38:03;98424.53;;;-0.62;100.00
55217;BME280;41086;46.736;15.666;2023-01-27T01:40:30;98426.41;;;-0.69;100.00
55217;BME280;41086;46.736;15.666;2023-01-27T01:43:02;98409.19;;;-0.75;100.00
55217;BME280;41086;46.736;15.666;2023-01-27T01:53:41;98387.75;;;-0.84;100.00
55217;BME280;41086;46.736;15.666;2023-01-27T01:56:13;98412.50;;;-0.68;100.00
55217;BME280;41086;46.736;15.666;2023-01-27T01:58:44;98409.91;;;-0.68;100.00
55217;BME280;41086;46.736;15.666;2023-01-27T02:01:13;98408.94;;;-0.64;100.00
55217;BME280;41086;46.736;15.666;2023-01-27T02:03:45;98398.72;;;-0.72;100.00
55217;BME280;41086;46.736;15.666;2023-01-27T02:06:13;98381.59;;;-0.82;100.00
55217;BME280;41086;46.736;15.666;2023-01-27T02:08:44;98406.53;;;-0.72;100.00
55217;BME280;41086;46.736;15.666;2023-01-27T02:11:13;98407.28;;;-0.68;100.00
55217;BME280;41086;46.736;15.666;2023-01-27T02:13:40;98414.06;;;-0.61;100.00
55217;BME280;41086;46.736;15.666;2023-01-27T02:16:09;98415.75;;;-0.60;100.00
55217;BME280;41086;46.736;15.666;2023-01-27T02:18:39;98423.53;;;-0.57;100.00
55217;BME280;41086;46.736;15.666;2023-01-27T02:21:06;98413.22;;;-0.61;100.00
55217;BME280;41086;46.736;15.666;2023-01-27T02:26:20;98424.28;;;-0.53;100.00
55217;BME280;41086;46.736;15.666;2023-01-27T02:29:01;98425.13;;;-0.51;100.00
55217;BME280;41086;46.736;15.666;2023-01-27T02:31:28;98402.91;;;-0.66;100.00
55217;BME280;41086;46.736;15.666;2023-01-27T02:34:00;98428.66;;;-0.54;100.00
55217;BME280;41086;46.736;15.666;2023-01-27T02:36:30;98431.19;;;-0.52;100.00
55217;BME280;41086;46.736;15.666;2023-01-27T02:38:58;98426.91;;;-0.53;100.00
55217;BME280;41086;46.736;15.666;2023-01-27T02:41:38;98426.91;;;-0.53;100.00
55217;BME280;41086;46.736;15.666;2023-01-27T02:44:06;98408.84;;;-0.61;100.00
55217;BME280;41086;46.736;15.666;2023-01-27T02:46:35;98423.47;;;-0.55;100.00
55217;BME280;41086;46.736;15.666;2023-01-27T02:49:02;98409.75;;;-0.62;100.00
55217;BME280;41086;46.736;15.666;2023-01-27T02:51:29;98426.84;;;-0.52;100.00
55217;BME280;41086;46.736;15.666;2023-01-27T02:53:58;98415.75;;;-0.58;100.00
55217;BME280;41086;46.736;15.666;2023-01-27T02:56:26;98427.09;;;-0.61;100.00
55217;BME280;41086;46.736;15.666;2023-01-27T02:58:55;98421.03;;;-0.61;100.00
55217;BME280;41086;46.736;15.666;2023-01-27T03:01:30;98407.28;;;-0.68;100.00
55217;BME280;41086;46.736;15.666;2023-01-27T03:03:59;98424.56;;;-0.64;100.00
55217;BME280;41086;46.736;15.666;2023-01-27T03:06:26;98425.31;;;-0.60;100.00
55217;BME280;41086;46.736;15.666;2023-01-27T03:08:52;98414.13;;;-0.62;100.00
55217;BME280;41086;46.736;15.666;2023-01-27T03:11:20;98412.38;;;-0.62;100.00
55217;BME280;41086;46.736;15.666;2023-01-27T03:14:07;98412.31;;;-0.60;100.00
55217;BME280;41086;46.736;15.666;2023-01-27T03:16:34;98407.09;;;-0.60;100.00
55217;BME280;41086;46.736;15.666;2023-01-27T03:19:20;98410.63;;;-0.61;100.00
55217;BME280;41086;46.736;15.666;2023-01-27T03:21:46;98401.16;;;-0.65;100.00
55217;BME280;41086;46.736;15.666;2023-01-27T03:24:18;98392.59;;;-0.71;100.00
55217;BME280;41086;46.736;15.666;2023-01-27T03:26:46;98407.09;;;-0.60;100.00
55217;BME280;41086;46.736;15.666;2023-01-27T03:29:15;98408.00;;;-0.61;100.00
55217;BME280;41086;46.736;15.666;2023-01-27T03:32:00;98411.53;;;-0.62;100.00
55217;BME280;41086;46.736;15.666;2023-01-27T03:34:29;98401.13;;;-0.64;100.00
55217;BME280;41086;46.736;15.666;2023-01-27T03:37:03;98403.72;;;-0.64;100.00
55217;BME280;41086;46.736;15.666;2023-01-27T03:39:50;98402.97;;;-0.68;100.00
55217;BME280;41086;46.736;15.666;2023-01-27T03:42:35;98402.06;;;-0.67;100.00
55217;BME280;41086;46.736;15.666;2023-01-27T03:45:21;98400.31;;;-0.66;100.00
55217;BME280;41086;46.736;15.666;2023-01-27T03:48:06;98390.81;;;-0.67;100.00
55217;BME280;41086;46.736;15.666;2023-01-27T03:50:33;98388.19;;;-0.67;100.00
55217;BME280;41086;46.736;15.666;2023-01-27T03:53:08;98375.28;;;-0.72;100.00
55217;BME280;41086;46.736;15.666;2023-01-27T03:55:37;98378.72;;;-0.70;100.00
55217;BME280;41086;46.736;15.666;2023-01-27T03:58:17;98380.50;;;-0.72;100.00
55217;BME280;41086;46.736;15.666;2023-01-27T04:00:47;98377.91;;;-0.72;100.00
55217;BME280;41086;46.736;15.666;2023-01-27T04:03:14;98359.09;;;-0.83;100.00
55217;BME280;41086;46.736;15.666;2023-01-27T04:06:25;98378.88;;;-0.76;100.00
55217;BME280;41086;46.736;15.666;2023-01-27T04:09:12;98381.53;;;-0.79;100.00
55217;BME280;41086;46.736;15.666;2023-01-27T04:11:39;98381.53;;;-0.79;100.00
55217;BME280;41086;46.736;15.666;2023-01-27T04:14:22;98376.38;;;-0.80;100.00
55217;BME280;41086;46.736;15.666;2023-01-27T04:16:53;98374.72;;;-0.84;100.00
55217;BME280;41086;46.736;15.666;2023-01-27T04:19:20;98373.94;;;-0.86;100.00
55217;BME280;41086;46.736;15.666;2023-01-27T04:21:48;98379.88;;;-0.81;100.00
55217;BME280;41086;46.736;15.666;2023-01-27T04:24:15;98382.53;;;-0.84;100.00
55217;BME280;41086;46.736;15.666;2023-01-27T04:26:44;98382.50;;;-0.83;100.00
55217;BME280;41086;46.736;15.666;2023-01-27T04:29:12;98392.91;;;-0.81;100.00
55217;BME280;41086;46.736;15.666;2023-01-27T04:31:39;98361.88;;;-0.91;100.00
55217;BME280;41086;46.736;15.666;2023-01-27T04:34:07;98384.22;;;-0.82;100.00
55217;BME280;41086;46.736;15.666;2023-01-27T04:36:34;98384.25;;;-0.83;100.00
55217;BME280;41086;46.736;15.666;2023-01-27T04:39:01;98382.44;;;-0.80;100.00
55217;BME280;41086;46.736;15.666;2023-01-27T04:41:28;98385.97;;;-0.82;100.00
55217;BME280;41086;46.736;15.666;2023-01-27T04:43:55;98367.81;;;-0.85;100.00
55217;BME280;41086;46.736;15.666;2023-01-27T04:46:21;98374.81;;;-0.87;100.00
55217;BME280;41086;46.736;15.666;2023-01-27T04:48:48;98378.22;;;-0.85;100.00
55217;BME280;41086;46.736;15.666;2023-01-27T04:51:15;98379.88;;;-0.81;100.00
55217;BME280;41086;46.736;15.666;2023-01-27T04:53:42;98379.81;;;-0.78;100.00
55217;BME280;41086;46.736;15.666;2023-01-27T04:56:30;98363.72;;;-0.94;100.00
55217;BME280;41086;46.736;15.666;2023-01-27T04:59:01;98374.03;;;-0.91;100.00
55217;BME280;41086;46.736;15.666;2023-01-27T05:01:28;98386.81;;;-0.82;100.00
55217;BME280;41086;46.736;15.666;2023-01-27T05:03:55;98339.78;;;-1.08;100.00
55217;BME280;41086;46.736;15.666;2023-01-27T05:06:22;98393.78;;;-0.82;100.00
55217;BME280;41086;46.736;15.666;2023-01-27T05:08:49;98389.66;;;-0.93;100.00
55217;BME280;41086;46.736;15.666;2023-01-27T05:11:16;98370.25;;;-1.14;100.00
55217;BME280;41086;46.736;15.666;2023-01-27T05:13:44;98378.91;;;-1.13;100.00
55217;BME280;41086;46.736;15.666;2023-01-27T05:16:15;98387.38;;;-1.05;100.00
55217;BME280;41086;46.736;15.666;2023-01-27T05:18:44;98384.78;;;-1.06;100.00
55217;BME280;41086;46.736;15.666;2023-01-27T05:21:17;98389.06;;;-1.04;100.00
55217;BME280;41086;46.736;15.666;2023-01-27T05:23:44;98386.66;;;-1.12;100.00
55217;BME280;41086;46.736;15.666;2023-01-27T05:28:42;98378.16;;;-1.18;100.00
55217;BME280;41086;46.736;15.666;2023-01-27T05:31:11;98390.72;;;-1.00;100.00
55217;BME280;41086;46.736;15.666;2023-01-27T05:33:39;98389.91;;;-1.02;100.00
55217;BME280;41086;46.736;15.666;2023-01-27T05:36:08;98403.59;;;-0.94;100.00
55217;BME280;41086;46.736;15.666;2023-01-27T05:38:36;98397.69;;;-1.02;100.00
55217;BME280;41086;46.736;15.666;2023-01-27T05:41:05;98411.38;;;-0.94;100.00
55217;BME280;41086;46.736;15.666;2023-01-27T05:43:34;98408.00;;;-0.97;100.00
55217;BME280;41086;46.736;15.666;2023-01-27T05:46:07;98406.19;;;-0.95;100.00
55217;BME280;41086;46.736;15.666;2023-01-27T05:48:36;98377.28;;;-1.19;100.00
55217;BME280;41086;46.736;15.666;2023-01-27T05:51:04;98383.09;;;-1.07;100.00
55217;BME280;41086;46.736;15.666;2023-01-27T05:53:31;98391.91;;;-1.13;100.00
55217;BME280;41086;46.736;15.666;2023-01-27T05:55:59;98413.22;;;-0.99;100.00
55217;BME280;41086;46.736;15.666;2023-01-27T05:58:26;98405.53;;;-1.03;100.00
55217;BME280;41086;46.736;15.666;2023-01-27T06:00:53;98426.16;;;-0.96;100.00
55217;BME280;41086;46.736;15.666;2023-01-27T06:03:21;98417.66;;;-1.02;100.00
55217;BME280;41086;46.736;15.666;2023-01-27T06:05:55;98421.97;;;-1.01;100.00
55217;BME280;41086;46.736;15.666;2023-01-27T06:08:24;98416.84;;;-1.06;100.00
55217;BME280;41086;46.736;15.666;2023-01-27T06:10:53;98417.66;;;-1.02;100.00
55217;BME280;41086;46.736;15.666;2023-01-27T06:13:21;98416.66;;;-0.97;100.00
55217;BME280;41086;46.736;15.666;2023-01-27T06:15:49;98416.00;;;-1.05;100.00
55217;BME280;41086;46.736;15.666;2023-01-27T06:18:17;98406.53;;;-1.09;100.00
55217;BME280;41086;46.736;15.666;2023-01-27T06:20:45;98413.47;;;-1.09;100.00
55217;BME280;41086;46.736;15.666;2023-01-27T06:23:13;98408.28;;;-1.09;100.00
55217;BME280;41086;46.736;15.666;2023-01-27T06:25:43;98403.16;;;-1.13;100.00
55217;BME280;41086;46.736;15.666;2023-01-27T06:28:11;98402.91;;;-1.02;100.00
55217;BME280;41086;46.736;15.666;2023-01-27T06:30:55;98404.81;;;-1.08;100.00
55217;BME280;41086;46.736;15.666;2023-01-27T06:33:22;98383.56;;;-1.27;100.00
55217;BME280;41086;46.736;15.666;2023-01-27T06:35:49;98409.19;;;-1.12;100.00
55217;BME280;41086;46.736;15.666;2023-01-27T06:38:16;98390.25;;;-1.17;100.00
55217;BME280;41086;46.736;15.666;2023-01-27T06:40:43;98387.63;;;-1.16;100.00
55217;BME280;41086;46.736;15.666;2023-01-27T06:43:11;98407.44;;;-1.10;100.00
55217;BME280;41086;46.736;15.666;2023-01-27T06:45:39;98409.81;;;-1.01;100.00
55217;BME280;41086;46.736;15.666;2023-01-27T06:48:08;98388.56;;;-1.20;100.00
55217;BME280;41086;46.736;15.666;2023-01-27T06:50:39;98421.13;;;-1.02;100.00
55217;BME280;41086;46.736;15.666;2023-01-27T06:53:06;98399.78;;;-1.16;100.00
55217;BME280;41086;46.736;15.666;2023-01-27T06:55:37;98410.84;;;-1.08;100.00
55217;BME280;41086;46.736;15.666;2023-01-27T06:58:09;98403.97;;;-1.10;100.00
55217;BME280;41086;46.736;15.666;2023-01-27T07:00:38;98362.00;;;-1.32;100.00
55217;BME280;41086;46.736;15.666;2023-01-27T07:03:05;98401.31;;;-1.09;100.00
55217;BME280;41086;46.736;15.666;2023-01-27T07:05:32;98430.63;;;-1.01;100.00
55217;BME280;41086;46.736;15.666;2023-01-27T07:07:59;98405.78;;;-1.14;100.00
55217;BME280;41086;46.736;15.666;2023-01-27T07:10:26;98425.53;;;-1.05;100.00
55217;BME280;41086;46.736;15.666;2023-01-27T07:13:04;98437.56;;;-1.01;100.00
55217;BME280;41086;46.736;15.666;2023-01-27T07:15:32;98418.75;;;-1.11;100.00
55217;BME280;41086;46.736;15.666;2023-01-27T07:18:00;98439.31;;;-1.00;100.00
55217;BME280;41086;46.736;15.666;2023-01-27T07:20:27;98441.84;;;-0.97;100.00
55217;BME280;41086;46.736;15.666;2023-01-27T07:22:59;98421.28;;;-1.09;100.00
55217;BME280;41086;46.736;15.666;2023-01-27T07:25:28;98410.09;;;-1.13;100.00
55217;BME280;41086;46.736;15.666;2023-01-27T07:27:57;98423.97;;;-1.14;100.00
55217;BME280;41086;46.736;15.666;2023-01-27T07:30:25;98431.59;;;-1.05;100.00
55217;BME280;41086;46.736;15.666;2023-01-27T07:32:52;98423.97;;;-1.14;100.00
55217;BME280;41086;46.736;15.666;2023-01-27T07:35:21;98417.75;;;-1.07;100.00
55217;BME280;41086;46.736;15.666;2023-01-27T07:37:48;98433.19;;;-0.99;100.00
55217;BME280;41086;46.736;15.666;2023-01-27T07:40:15;98426.41;;;-1.05;100.00
55217;BME280;41086;46.736;15.666;2023-01-27T07:42:42;98424.72;;;-1.07;100.00
55217;BME280;41086;46.736;15.666;2023-01-27T07:45:09;98428.09;;;-1.04;100.00
55217;BME280;41086;46.736;15.666;2023-01-27T07:47:36;98410.09;;;-1.13;100.00
55217;BME280;41086;46.736;15.666;2023-01-27T07:50:03;98422.94;;;-1.05;100.00
55217;BME280;41086;46.736;15.666;2023-01-27T07:52:30;98414.56;;;-1.18;100.00
55217;BME280;41086;46.736;15.666;2023-01-27T07:54:57;98410.72;;;-1.03;100.00
55217;BME280;41086;46.736;15.666;2023-01-27T07:57:24;98430.38;;;-0.90;100.00
55217;BME280;41086;46.736;15.666;2023-01-27T07:59:51;98430.59;;;-0.99;100.00
55217;BME280;41086;46.736;15.666;2023-01-27T08:02:22;98413.47;;;-1.08;100.00
55217;BME280;41086;46.736;15.666;2023-01-27T08:04:49;98425.31;;;-0.96;100.00
55217;BME280;41086;46.736;15.666;2023-01-27T08:07:19;98407.41;;;-1.08;100.00
55217;BME280;41086;46.736;15.666;2023-01-27T08:09:46;98428.78;;;-0.96;100.00
55217;BME280;41086;46.736;15.666;2023-01-27T08:12:13;98426.25;;;-0.99;100.00
55217;BME280;41086;46.736;15.666;2023-01-27T08:14:40;98440.03;;;-0.95;100.00
55217;BME280;41086;46.736;15.666;2023-01-27T08:17:07;98448.50;;;-0.85;100.00
55217;BME280;41086;46.736;15.666;2023-01-27T08:19:34;98450.19;;;-0.84;100.00
55217;BME280;41086;46.736;15.666;2023-01-27T08:22:01;98444.06;;;-0.82;100.00
55217;BME280;41086;46.736;15.666;2023-01-27T08:24:27;98448.63;;;-0.92;100.00
55217;BME280;41086;46.736;15.666;2023-01-27T08:26:55;98457.97;;;-0.83;100.00
55217;BME280;41086;46.736;15.666;2023-01-27T08:29:22;98439.97;;;-0.92;100.00
55217;BME280;41086;46.736;15.666;2023-01-27T08:31:49;98439.84;;;-0.86;100.00
55217;BME280;41086;46.736;15.666;2023-01-27T08:34:16;98448.50;;;-0.87;100.00
55217;BME280;41086;46.736;15.666;2023-01-27T08:36:44;98467.28;;;-0.73;100.00
55217;BME280;41086;46.736;15.666;2023-01-27T08:39:11;98469.03;;;-0.73;100.00
55217;BME280;41086;46.736;15.666;2023-01-27T08:41:38;98472.50;;;-0.73;100.00
55217;BME280;41086;46.736;15.666;2023-01-27T08:44:05;98471.50;;;-0.69;100.00
55217;BME280;41086;46.736;15.666;2023-01-27T08:46:33;98475.88;;;-0.71;100.00
55217;BME280;41086;46.736;15.666;2023-01-27T08:49:00;98481.97;;;-0.70;100.00
55217;BME280;41086;46.736;15.666;2023-01-27T08:51:27;98472.41;;;-0.70;100.00
55217;BME280;41086;46.736;15.666;2023-01-27T08:53:54;98473.25;;;-0.68;100.00
55217;BME280;41086;46.736;15.666;2023-01-27T08:56:21;98468.88;;;-0.67;100.00
55217;BME280;41086;46.736;15.666;2023-01-27T08:58:48;98463.59;;;-0.64;100.00
55217;BME280;41086;46.736;15.666;2023-01-27T09:01:15;98467.81;;;-0.60;100.00
55217;BME280;41086;46.736;15.666;2023-01-27T09:03:42;98486.78;;;-0.53;100.00
55217;BME280;41086;46.736;15.666;2023-01-27T09:06:11;98483.41;;;-0.57;100.00
55217;BME280;41086;46.736;15.666;2023-01-27T09:08:39;98494.44;;;-0.47;100.00
55217;BME280;41086;46.736;15.666;2023-01-27T09:11:14;98503.91;;;-0.43;100.00
55217;BME280;41086;46.736;15.666;2023-01-27T09:13:42;98502.97;;;-0.40;100.00
55217;BME280;41086;46.736;15.666;2023-01-27T09:16:09;98492.41;;;-0.34;100.00
55217;BME280;41086;46.736;15.666;2023-01-27T09:18:36;98510.81;;;-0.42;100.00
55217;BME280;41086;46.736;15.666;2023-01-27T09:21:04;98499.63;;;-0.47;100.00
55217;BME280;41086;46.736;15.666;2023-01-27T09:23:32;98527.59;;;-0.18;100.00
55217;BME280;41086;46.736;15.666;2023-01-27T09:25:59;98511.97;;;-0.19;100.00
55217;BME280;41086;46.736;15.666;2023-01-27T09:28:26;98517.78;;;-0.08;100.00
55217;BME280;41086;46.736;15.666;2023-01-27T09:30:56;98530.63;;;-0.01;100.00
55217;BME280;41086;46.736;15.666;2023-01-27T09:33:24;98524.06;;;-0.17;100.00
55217;BME280;41086;46.736;15.666;2023-01-27T09:36:00;98515.91;;;-0.37;100.00
55217;BME280;41086;46.736;15.666;2023-01-27T09:38:29;98548.44;;;-0.18;100.00
55217;BME280;41086;46.736;15.666;2023-01-27T09:52:21;98547.25;;;-0.05;100.00
55217;BME280;41086;46.736;15.666;2023-01-27T10:06:40;98529.38;;;0.14;100.00
55217;BME280;41086;46.736;15.666;2023-01-27T10:12:33;98516.28;;;0.16;100.00
55217;BME280;41086;46.736;15.666;2023-01-27T10:20:43;98522.28;;;-0.13;100.00
55217;BME280;41086;46.736;15.666;2023-01-27T10:23:18;98524.34;;;0.08;100.00
55217;BME280;41086;46.736;15.666;2023-01-27T10:26:59;98520.66;;;0.15;100.00
55217;BME280;41086;46.736;15.666;2023-01-27T10:28:58;98461.56;;;-0.17;100.00
55217;BME280;41086;46.736;15.666;2023-01-27T10:31:35;98486.84;;;-0.20;100.00
55217;BME280;41086;46.736;15.666;2023-01-27T10:40:04;98508.91;;;0.01;100.00
55217;BME280;41086;46.736;15.666;2023-01-27T10:42:35;98508.56;;;0.13;100.00
55217;BME280;41086;46.736;15.666;2023-01-27T10:45:23;98466.00;;;0.12;100.00
55217;BME280;41086;46.736;15.666;2023-01-27T10:50:43;98503.53;;;0.39;100.00
55217;BME280;41086;46.736;15.666;2023-01-27T10:56:02;98504.63;;;0.62;100.00
55217;BME280;41086;46.736;15.666;2023-01-27T10:58:50;98434.84;;;0.08;100.00
55217;BME280;41086;46.736;15.666;2023-01-27T11:01:29;98498.13;;;0.46;100.00
55217;BME280;41086;46.736;15.666;2023-01-27T11:04:16;98481.56;;;0.15;100.00
55217;BME280;41086;46.736;15.666;2023-01-27T11:06:47;98495.31;;;0.22;100.00
55217;BME280;41086;46.736;15.666;2023-01-27T11:11:42;98489.50;;;0.11;100.00
55217;BME280;41086;46.736;15.666;2023-01-27T11:14:20;98479.03;;;0.12;100.00
55217;BME280;41086;46.736;15.666;2023-01-27T11:16:51;98489.00;;;0.31;100.00
55217;BME280;41086;46.736;15.666;2023-01-27T11:19:27;98467.97;;;0.04;100.00
55217;BME280;41086;46.736;15.666;2023-01-27T11:21:55;98483.13;;;0.22;100.00
55217;BME280;41086;46.736;15.666;2023-01-27T11:24:45;98476.19;;;0.21;100.00
55217;BME280;41086;46.736;15.666;2023-01-27T11:27:28;98466.00;;;0.14;100.00
55217;BME280;41086;46.736;15.666;2023-01-27T11:30:02;98484.81;;;0.24;100.00
55217;BME280;41086;46.736;15.666;2023-01-27T11:35:15;98475.91;;;0.32;100.00
55217;BME280;41086;46.736;15.666;2023-01-27T11:37:50;98471.38;;;0.39;100.00
55217;BME280;41086;46.736;15.666;2023-01-27T11:40:30;98472.56;;;0.27;100.00
55217;BME280;41086;46.736;15.666;2023-01-27T11:42:58;98473.22;;;0.35;100.00
55217;BME280;41086;46.736;15.666;2023-01-27T11:45:26;98466.84;;;0.46;100.00
55217;BME280;41086;46.736;15.666;2023-01-27T11:47:57;98467.00;;;0.41;100.00
55217;BME280;41086;46.736;15.666;2023-01-27T11:50:28;98450.44;;;0.42;100.00
55217;BME280;41086;46.736;15.666;2023-01-27T11:53:02;98450.41;;;0.43;100.00
55217;BME280;41086;46.736;15.666;2023-01-27T11:55:38;98453.09;;;0.70;100.00
55217;BME280;41086;46.736;15.666;2023-01-27T12:00:45;98454.72;;;0.74;100.00
55217;BME280;41086;46.736;15.666;2023-01-27T12:03:25;98453.00;;;0.73;100.00
55217;BME280;41086;46.736;15.666;2023-01-27T12:05:55;98444.81;;;0.85;100.00
55217;BME280;41086;46.736;15.666;2023-01-27T12:11:25;98441.63;;;0.76;100.00
55217;BME280;41086;46.736;15.666;2023-01-27T12:14:00;98441.47;;;0.82;100.00
55217;BME280;41086;46.736;15.666;2023-01-27T12:16:48;98447.06;;;1.26;100.00
55217;BME280;41086;46.736;15.666;2023-01-27T12:19:28;98429.28;;;1.37;100.00
55217;BME280;41086;46.736;15.666;2023-01-27T12:22:00;98434.75;;;1.29;100.00
55217;BME280;41086;46.736;15.666;2023-01-27T12:24:40;98425.03;;;1.35;100.00
55217;BME280;41086;46.736;15.666;2023-01-27T12:27:20;98396.50;;;1.28;100.00
55217;BME280;41086;46.736;15.666;2023-01-27T12:29:57;98440.25;;;1.48;100.00
55217;BME280;41086;46.736;15.666;2023-01-27T12:32:44;98427.94;;;1.25;100.00
55217;BME280;41086;46.736;15.666;2023-01-27T12:35:18;98431.03;;;1.10;100.00
55217;BME280;41086;46.736;15.666;2023-01-27T12:38:24;98400.38;;;0.88;100.00
55217;BME280;41086;46.736;15.666;2023-01-27T12:41:04;98413.84;;;1.03;100.00
55217;BME280;41086;46.736;15.666;2023-01-27T12:43:49;98429.06;;;0.88;100.00
55217;BME280;41086;46.736;15.666;2023-01-27T12:46:21;98417.38;;;0.72;100.00
55217;BME280;41086;46.736;15.666;2023-01-27T12:48:52;98420.31;;;0.61;100.00
55217;BME280;41086;46.736;15.666;2023-01-27T12:51:49;98411.13;;;0.48;100.00
55217;BME280;41086;46.736;15.666;2023-01-27T12:54:25;98408.91;;;0.65;100.00
55217;BME280;41086;46.736;15.666;2023-01-27T12:57:01;98425.50;;;0.91;100.00
55217;BME280;41086;46.736;15.666;2023-01-27T12:59:28;98414.41;;;1.13;100.00
55217;BME280;41086;46.736;15.666;2023-01-27T13:04:50;98406.31;;;0.65;100.00
55217;BME280;41086;46.736;15.666;2023-01-27T13:07:22;98416.00;;;0.90;100.00
55217;BME280;41086;46.736;15.666;2023-01-27T13:09:51;98411.13;;;0.78;100.00
55217;BME280;41086;46.736;15.666;2023-01-27T13:12:26;98410.16;;;0.52;100.00
55217;BME280;41086;46.736;15.666;2023-01-27T13:15:05;98403.13;;;0.54;100.00
55217;BME280;41086;46.736;15.666;2023-01-27T13:20:28;98417.84;;;0.57;100.00
55217;BME280;41086;46.736;15.666;2023-01-27T13:23:00;98409.16;;;0.56;100.00
55217;BME280;41086;46.736;15.666;2023-01-27T13:25:36;98417.44;;;0.71;100.00
55217;BME280;41086;46.736;15.666;2023-01-27T13:28:06;98415.59;;;0.74;100.00
55217;BME280;41086;46.736;15.666;2023-01-27T13:30:39;98421.31;;;0.87;100.00
55217;BME280;41086;46.736;15.666;2023-01-27T13:36:20;98407.66;;;0.79;100.00
55217;BME280;41086;46.736;15.666;2023-01-27T13:42:04;98425.47;;;0.93;100.00
55217;BME280;41086;46.736;15.666;2023-01-27T13:44:44;98402.13;;;0.88;100.00
55217;BME280;41086;46.736;15.666;2023-01-27T13:47:24;98368.88;;;0.66;100.00
55217;BME280;41086;46.736;15.666;2023-01-27T13:52:40;98427.28;;;0.91;100.00
55217;BME280;41086;46.736;15.666;2023-01-27T13:55:11;98430.94;;;0.85;100.00
55217;BME280;41086;46.736;15.666;2023-01-27T13:57:49;98415.91;;;0.63;100.00
55217;BME280;41086;46.736;15.666;2023-01-27T14:00:38;98406.56;;;0.56;100.00
55217;BME280;41086;46.736;15.666;2023-01-27T14:03:40;98417.69;;;0.63;100.00
55217;BME280;41086;46.736;15.666;2023-01-27T14:17:27;98433.34;;;0.61;100.00
55217;BME280;41086;46.736;15.666;2023-01-27T14:20:14;98437.63;;;0.64;100.00
55217;BME280;41086;46.736;15.666;2023-01-27T14:28:08;98425.53;;;0.61;100.00
55217;BME280;41086;46.736;15.666;2023-01-27T14:30:51;98443.75;;;0.63;100.00
55217;BME280;41086;46.736;15.666;2023-01-27T14:36:29;98437.22;;;0.48;100.00
55217;BME280;41086;46.736;15.666;2023-01-27T14:42:11;98435.69;;;0.41;100.00
55217;BME280;41086;46.736;15.666;2023-01-27T14:44:35;98435.06;;;0.33;100.00
55217;BME280;41086;46.736;15.666;2023-01-27T14:47:45;98444.59;;;0.34;100.00
55217;BME280;41086;46.736;15.666;2023-01-27T14:53:01;98456.69;;;0.36;100.00